sensor_id;sensor_type;location;lat;lon;timestamp;P1;durP1;ratioP1;P2;durP2;ratioP2
6787;SDS011;3431;47.966;10.268;2022-07-21T00:00:20;6.88;;;6.28;;
6787;SDS011;3431;47.966;10.268;2022-07-21T00:00:43;7.15;;;6.55;;
6787;SDS011;3431;47.966;10.268;2022-07-21T00:01:06;6.80;;;6.10;;
6787;SDS011;3431;47.966;10.268;2022-07-21T00:01:28;6.93;;;6.22;;
6787;SDS011;3431;47.966;10.268;2022-07-21T00:01:50;7.03;;;6.43;;
6787;SDS011;3431;47.966;10.268;2022-07-21T00:02:13;7.45;;;6.82;;
6787;SDS011;3431;47.966;10.268;2022-07-21T00:02:34;7.28;;;6.68;;
6787;SDS011;3431;47.966;10.268;2022-07-21T00:02:57;7.45;;;6.75;;
6787;SDS011;3431;47.966;10.268;2022-07-21T00:03:19;7.20;;;6.50;;
6787;SDS011;3431;47.966;10.268;2022-07-21T00:03:40;7.00;;;6.40;;
6787;SDS011;3431;47.966;10.268;2022-07-21T00:04:02;7.40;;;6.70;;
6787;SDS011;3431;47.966;10.268;2022-07-21T00:04:27;7.30;;;6.60;;
6787;SDS011;3431;47.966;10.268;2022-07-21T00:04:48;6.80;;;6.20;;
6787;SDS011;3431;47.966;10.268;2022-07-21T00:05:10;7.47;;;6.88;;
6787;SDS011;3431;47.966;10.268;2022-07-21T00:05:32;7.50;;;6.80;;
6787;SDS011;3431;47.966;10.268;2022-07-21T00:05:55;7.85;;;7.15;;
6787;SDS011;3431;47.966;10.268;2022-07-21T00:06:17;7.65;;;7.05;;
6787;SDS011;3431;47.966;10.268;2022-07-21T00:06:38;6.88;;;6.30;;
6787;SDS011;3431;47.966;10.268;2022-07-21T00:07:00;7.10;;;6.50;;
6787;SDS011;3431;47.966;10.268;2022-07-21T00:07:22;7.28;;;6.57;;
6787;SDS011;3431;47.966;10.268;2022-07-21T00:07:44;7.40;;;6.80;;
6787;SDS011;3431;47.966;10.268;2022-07-21T00:08:06;7.30;;;6.70;;
6787;SDS011;3431;47.966;10.268;2022-07-21T00:08:29;7.28;;;6.68;;
6787;SDS011;3431;47.966;10.268;2022-07-21T00:08:51;7.43;;;6.82;;
6787;SDS011;3431;47.966;10.268;2022-07-21T00:09:13;7.30;;;6.70;;
6787;SDS011;3431;47.966;10.268;2022-07-21T00:09:35;7.30;;;6.63;;
6787;SDS011;3431;47.966;10.268;2022-07-21T00:09:57;7.63;;;6.85;;
6787;SDS011;3431;47.966;10.268;2022-07-21T00:10:20;7.35;;;6.75;;
6787;SDS011;3431;47.966;10.268;2022-07-21T00:10:42;7.20;;;6.60;;
6787;SDS011;3431;47.966;10.268;2022-07-21T00:11:04;7.38;;;6.68;;
6787;SDS011;3431;47.966;10.268;2022-07-21T00:11:27;7.13;;;6.53;;
6787;SDS011;3431;47.966;10.268;2022-07-21T00:11:49;7.50;;;6.78;;
6787;SDS011;3431;47.966;10.268;2022-07-21T00:12:10;7.25;;;6.55;;
6787;SDS011;3431;47.966;10.268;2022-07-21T00:12:32;7.28;;;6.57;;
6787;SDS011;3431;47.966;10.268;2022-07-21T00:12:56;8.00;;;7.20;;
6787;SDS011;3431;47.966;10.268;2022-07-21T00:13:18;7.47;;;6.80;;
6787;SDS011;3431;47.966;10.268;2022-07-21T00:13:40;7.88;;;7.18;;
6787;SDS011;3431;47.966;10.268;2022-07-21T00:14:02;7.70;;;7.00;;
6787;SDS011;3431;47.966;10.268;2022-07-21T00:14:24;7.50;;;6.90;;
6787;SDS011;3431;47.966;10.268;2022-07-21T00:14:46;7.53;;;6.80;;
6787;SDS011;3431;47.966;10.268;2022-07-21T00:15:08;7.70;;;7.00;;
6787;SDS011;3431;47.966;10.268;2022-07-21T00:15:31;7.20;;;6.60;;
6787;SDS011;3431;47.966;10.268;2022-07-21T00:15:54;7.47;;;6.88;;
6787;SDS011;3431;47.966;10.268;2022-07-21T00:16:16;7.33;;;6.73;;
6787;SDS011;3431;47.966;10.268;2022-07-21T00:16:37;7.38;;;6.78;;
6787;SDS011;3431;47.966;10.268;2022-07-21T00:17:00;7.45;;;6.85;;
6787;SDS011;3431;47.966;10.268;2022-07-21T00:17:23;7.10;;;6.50;;
6787;SDS011;3431;47.966;10.268;2022-07-21T00:17:45;7.80;;;7.10;;
6787;SDS011;3431;47.966;10.268;2022-07-21T00:18:06;7.57;;;6.93;;
6787;SDS011;3431;47.966;10.268;2022-07-21T00:18:28;7.65;;;6.95;;
6787;SDS011;3431;47.966;10.268;2022-07-21T00:18:51;7.80;;;7.10;;
6787;SDS011;3431;47.966;10.268;2022-07-21T00:19:12;7.45;;;6.85;;
6787;SDS011;3431;47.966;10.268;2022-07-21T00:19:35;7.28;;;6.57;;
6787;SDS011;3431;47.966;10.268;2022-07-21T00:19:57;7.82;;;7.20;;
6787;SDS011;3431;47.966;10.268;2022-07-21T00:20:20;7.57;;;6.90;;
6787;SDS011;3431;47.966;10.268;2022-07-21T00:20:42;7.32;;;6.65;;
6787;SDS011;3431;47.966;10.268;2022-07-21T00:21:04;7.53;;;6.80;;
6787;SDS011;3431;47.966;10.268;2022-07-21T00:21:26;7.90;;;7.10;;
6787;SDS011;3431;47.966;10.268;2022-07-21T00:21:47;7.25;;;6.55;;
6787;SDS011;3431;47.966;10.268;2022-07-21T00:22:10;7.45;;;6.75;;
6787;SDS011;3431;47.966;10.268;2022-07-21T00:22:31;8.05;;;7.28;;
6787;SDS011;3431;47.966;10.268;2022-07-21T00:22:53;8.40;;;7.60;;
6787;SDS011;3431;47.966;10.268;2022-07-21T00:23:15;7.88;;;7.07;;
6787;SDS011;3431;47.966;10.268;2022-07-21T00:23:37;7.50;;;6.85;;
6787;SDS011;3431;47.966;10.268;2022-07-21T00:24:00;7.75;;;7.05;;
6787;SDS011;3431;47.966;10.268;2022-07-21T00:24:22;7.70;;;7.10;;
6787;SDS011;3431;47.966;10.268;2022-07-21T00:24:43;7.63;;;7.03;;
6787;SDS011;3431;47.966;10.268;2022-07-21T00:25:05;7.82;;;7.13;;
6787;SDS011;3431;47.966;10.268;2022-07-21T00:25:29;7.47;;;6.88;;
6787;SDS011;3431;47.966;10.268;2022-07-21T00:25:51;8.10;;;7.40;;
6787;SDS011;3431;47.966;10.268;2022-07-21T00:26:13;8.55;;;7.75;;
6787;SDS011;3431;47.966;10.268;2022-07-21T00:26:36;8.07;;;7.28;;
6787;SDS011;3431;47.966;10.268;2022-07-21T00:26:58;8.30;;;7.55;;
6787;SDS011;3431;47.966;10.268;2022-07-21T00:27:20;7.70;;;7.10;;
6787;SDS011;3431;47.966;10.268;2022-07-21T00:27:42;8.32;;;7.63;;
6787;SDS011;3431;47.966;10.268;2022-07-21T00:28:05;8.38;;;7.68;;
6787;SDS011;3431;47.966;10.268;2022-07-21T00:28:27;8.80;;;8.00;;
6787;SDS011;3431;47.966;10.268;2022-07-21T00:28:48;8.07;;;7.38;;
6787;SDS011;3431;47.966;10.268;2022-07-21T00:29:10;7.65;;;6.97;;
6787;SDS011;3431;47.966;10.268;2022-07-21T00:29:32;8.13;;;7.32;;
6787;SDS011;3431;47.966;10.268;2022-07-21T00:29:53;7.70;;;7.03;;
6787;SDS011;3431;47.966;10.268;2022-07-21T00:30:16;8.05;;;7.35;;
6787;SDS011;3431;47.966;10.268;2022-07-21T00:30:38;8.15;;;7.45;;
6787;SDS011;3431;47.966;10.268;2022-07-21T00:30:59;8.30;;;7.60;;
6787;SDS011;3431;47.966;10.268;2022-07-21T00:31:21;7.82;;;7.13;;
6787;SDS011;3431;47.966;10.268;2022-07-21T00:31:44;8.00;;;7.23;;
6787;SDS011;3431;47.966;10.268;2022-07-21T00:32:05;7.97;;;7.28;;
6787;SDS011;3431;47.966;10.268;2022-07-21T00:32:27;7.97;;;7.33;;
6787;SDS011;3431;47.966;10.268;2022-07-21T00:32:49;7.80;;;7.10;;
6787;SDS011;3431;47.966;10.268;2022-07-21T00:33:11;7.95;;;7.25;;
6787;SDS011;3431;47.966;10.268;2022-07-21T00:33:33;7.38;;;6.78;;
6787;SDS011;3431;47.966;10.268;2022-07-21T00:33:55;7.88;;;7.20;;
6787;SDS011;3431;47.966;10.268;2022-07-21T00:34:16;7.95;;;7.25;;
6787;SDS011;3431;47.966;10.268;2022-07-21T00:34:40;8.07;;;7.38;;
6787;SDS011;3431;47.966;10.268;2022-07-21T00:35:02;8.10;;;7.40;;
6787;SDS011;3431;47.966;10.268;2022-07-21T00:35:25;7.90;;;7.20;;
6787;SDS011;3431;47.966;10.268;2022-07-21T00:35:47;7.95;;;7.25;;
6787;SDS011;3431;47.966;10.268;2022-07-21T00:36:09;8.07;;;7.37;;
6787;SDS011;3431;47.966;10.268;2022-07-21T00:36:31;7.63;;;6.93;;
6787;SDS011;3431;47.966;10.268;2022-07-21T00:36:53;7.63;;;7.03;;
6787;SDS011;3431;47.966;10.268;2022-07-21T00:37:14;7.93;;;7.22;;
6787;SDS011;3431;47.966;10.268;2022-07-21T00:37:37;8.18;;;7.38;;
6787;SDS011;3431;47.966;10.268;2022-07-21T00:37:59;7.93;;;7.22;;
6787;SDS011;3431;47.966;10.268;2022-07-21T00:38:21;7.88;;;7.18;;
6787;SDS011;3431;47.966;10.268;2022-07-21T00:38:43;7.65;;;7.00;;
6787;SDS011;3431;47.966;10.268;2022-07-21T00:39:05;7.60;;;7.00;;
6787;SDS011;3431;47.966;10.268;2022-07-21T00:39:27;7.85;;;7.15;;
6787;SDS011;3431;47.966;10.268;2022-07-21T00:39:49;7.82;;;7.13;;
6787;SDS011;3431;47.966;10.268;2022-07-21T00:40:11;8.13;;;7.43;;
6787;SDS011;3431;47.966;10.268;2022-07-21T00:40:34;7.70;;;7.10;;
6787;SDS011;3431;47.966;10.268;2022-07-21T00:40:57;7.88;;;7.18;;
6787;SDS011;3431;47.966;10.268;2022-07-21T00:41:18;7.40;;;6.78;;
6787;SDS011;3431;47.966;10.268;2022-07-21T00:41:40;7.13;;;6.50;;
6787;SDS011;3431;47.966;10.268;2022-07-21T00:42:01;7.32;;;6.72;;
6787;SDS011;3431;47.966;10.268;2022-07-21T00:42:25;7.78;;;7.07;;
6787;SDS011;3431;47.966;10.268;2022-07-21T00:42:49;7.80;;;7.10;;
6787;SDS011;3431;47.966;10.268;2022-07-21T00:43:11;8.05;;;7.35;;
6787;SDS011;3431;47.966;10.268;2022-07-21T00:43:33;7.72;;;7.03;;
6787;SDS011;3431;47.966;10.268;2022-07-21T00:43:55;7.55;;;6.85;;
6787;SDS011;3431;47.966;10.268;2022-07-21T00:44:21;7.57;;;6.93;;
6787;SDS011;3431;47.966;10.268;2022-07-21T00:44:43;7.73;;;7.07;;
6787;SDS011;3431;47.966;10.268;2022-07-21T00:45:05;7.57;;;6.97;;
6787;SDS011;3431;47.966;10.268;2022-07-21T00:45:28;7.63;;;7.03;;
6787;SDS011;3431;47.966;10.268;2022-07-21T00:45:51;7.50;;;6.90;;
6787;SDS011;3431;47.966;10.268;2022-07-21T00:46:13;7.40;;;6.80;;
6787;SDS011;3431;47.966;10.268;2022-07-21T00:46:35;7.32;;;6.72;;
6787;SDS011;3431;47.966;10.268;2022-07-21T00:46:56;7.32;;;6.72;;
6787;SDS011;3431;47.966;10.268;2022-07-21T00:47:19;7.43;;;6.82;;
6787;SDS011;3431;47.966;10.268;2022-07-21T00:47:42;8.00;;;7.20;;
6787;SDS011;3431;47.966;10.268;2022-07-21T00:48:04;7.68;;;7.00;;
6787;SDS011;3431;47.966;10.268;2022-07-21T00:48:26;7.07;;;6.45;;
6787;SDS011;3431;47.966;10.268;2022-07-21T00:48:48;7.05;;;6.45;;
6787;SDS011;3431;47.966;10.268;2022-07-21T00:49:11;7.75;;;7.05;;
6787;SDS011;3431;47.966;10.268;2022-07-21T00:49:32;7.55;;;6.90;;
6787;SDS011;3431;47.966;10.268;2022-07-21T00:49:56;7.88;;;7.20;;
6787;SDS011;3431;47.966;10.268;2022-07-21T00:50:20;7.80;;;7.10;;
6787;SDS011;3431;47.966;10.268;2022-07-21T00:50:43;7.65;;;6.95;;
6787;SDS011;3431;47.966;10.268;2022-07-21T00:51:04;7.60;;;6.90;;
6787;SDS011;3431;47.966;10.268;2022-07-21T00:51:26;7.60;;;6.90;;
6787;SDS011;3431;47.966;10.268;2022-07-21T00:51:48;7.85;;;7.18;;
6787;SDS011;3431;47.966;10.268;2022-07-21T00:52:10;8.18;;;7.55;;
6787;SDS011;3431;47.966;10.268;2022-07-21T00:52:33;8.00;;;7.20;;
6787;SDS011;3431;47.966;10.268;2022-07-21T00:52:54;8.05;;;7.35;;
6787;SDS011;3431;47.966;10.268;2022-07-21T00:53:16;8.23;;;7.53;;
6787;SDS011;3431;47.966;10.268;2022-07-21T00:53:39;8.20;;;7.50;;
6787;SDS011;3431;47.966;10.268;2022-07-21T00:54:01;7.93;;;7.20;;
6787;SDS011;3431;47.966;10.268;2022-07-21T00:54:22;7.53;;;6.93;;
6787;SDS011;3431;47.966;10.268;2022-07-21T00:54:44;7.68;;;6.97;;
6787;SDS011;3431;47.966;10.268;2022-07-21T00:55:06;7.77;;;6.97;;
6787;SDS011;3431;47.966;10.268;2022-07-21T00:55:31;7.63;;;6.93;;
6787;SDS011;3431;47.966;10.268;2022-07-21T00:55:52;7.55;;;6.85;;
6787;SDS011;3431;47.966;10.268;2022-07-21T00:56:14;7.90;;;7.10;;
6787;SDS011;3431;47.966;10.268;2022-07-21T00:56:37;7.88;;;7.18;;
6787;SDS011;3431;47.966;10.268;2022-07-21T00:56:58;8.30;;;7.50;;
6787;SDS011;3431;47.966;10.268;2022-07-21T00:57:21;8.20;;;7.38;;
6787;SDS011;3431;47.966;10.268;2022-07-21T00:57:43;7.93;;;7.22;;
6787;SDS011;3431;47.966;10.268;2022-07-21T00:58:06;8.50;;;7.68;;
6787;SDS011;3431;47.966;10.268;2022-07-21T00:58:29;8.52;;;7.72;;
6787;SDS011;3431;47.966;10.268;2022-07-21T00:58:50;8.05;;;7.40;;
6787;SDS011;3431;47.966;10.268;2022-07-21T00:59:12;7.95;;;7.35;;
6787;SDS011;3431;47.966;10.268;2022-07-21T00:59:35;8.10;;;7.40;;
6787;SDS011;3431;47.966;10.268;2022-07-21T00:59:57;7.97;;;7.28;;
6787;SDS011;3431;47.966;10.268;2022-07-21T01:00:21;7.67;;;6.97;;
6787;SDS011;3431;47.966;10.268;2022-07-21T01:00:44;8.00;;;7.25;;
6787;SDS011;3431;47.966;10.268;2022-07-21T01:01:06;7.55;;;6.85;;
6787;SDS011;3431;47.966;10.268;2022-07-21T01:01:27;8.25;;;7.50;;
6787;SDS011;3431;47.966;10.268;2022-07-21T01:01:49;7.80;;;7.10;;
6787;SDS011;3431;47.966;10.268;2022-07-21T01:02:12;7.90;;;7.20;;
6787;SDS011;3431;47.966;10.268;2022-07-21T01:02:34;7.88;;;7.18;;
6787;SDS011;3431;47.966;10.268;2022-07-21T01:02:57;8.23;;;7.53;;
6787;SDS011;3431;47.966;10.268;2022-07-21T01:03:19;8.57;;;7.78;;
6787;SDS011;3431;47.966;10.268;2022-07-21T01:03:42;8.27;;;7.57;;
6787;SDS011;3431;47.966;10.268;2022-07-21T01:04:04;8.10;;;7.40;;
6787;SDS011;3431;47.966;10.268;2022-07-21T01:04:25;8.60;;;7.70;;
6787;SDS011;3431;47.966;10.268;2022-07-21T01:04:47;8.02;;;7.40;;
6787;SDS011;3431;47.966;10.268;2022-07-21T01:05:11;8.23;;;7.53;;
6787;SDS011;3431;47.966;10.268;2022-07-21T01:05:35;8.57;;;7.78;;
6787;SDS011;3431;47.966;10.268;2022-07-21T01:05:57;7.97;;;7.28;;
6787;SDS011;3431;47.966;10.268;2022-07-21T01:06:20;8.25;;;7.55;;
6787;SDS011;3431;47.966;10.268;2022-07-21T01:06:44;8.68;;;7.93;;
6787;SDS011;3431;47.966;10.268;2022-07-21T01:07:07;8.55;;;7.75;;
6787;SDS011;3431;47.966;10.268;2022-07-21T01:07:29;8.35;;;7.60;;
6787;SDS011;3431;47.966;10.268;2022-07-21T01:07:51;8.75;;;7.95;;
6787;SDS011;3431;47.966;10.268;2022-07-21T01:08:14;8.68;;;7.97;;
6787;SDS011;3431;47.966;10.268;2022-07-21T01:08:37;8.90;;;8.10;;
6787;SDS011;3431;47.966;10.268;2022-07-21T01:08:58;8.48;;;7.78;;
6787;SDS011;3431;47.966;10.268;2022-07-21T01:09:20;8.88;;;7.97;;
6787;SDS011;3431;47.966;10.268;2022-07-21T01:09:43;9.07;;;7.45;;
6787;SDS011;3431;47.966;10.268;2022-07-21T01:10:05;8.35;;;7.55;;
6787;SDS011;3431;47.966;10.268;2022-07-21T01:10:27;8.13;;;7.43;;
6787;SDS011;3431;47.966;10.268;2022-07-21T01:10:51;8.77;;;7.97;;
6787;SDS011;3431;47.966;10.268;2022-07-21T01:11:13;8.70;;;7.90;;
6787;SDS011;3431;47.966;10.268;2022-07-21T01:11:35;8.63;;;7.90;;
6787;SDS011;3431;47.966;10.268;2022-07-21T01:11:58;8.38;;;7.68;;
6787;SDS011;3431;47.966;10.268;2022-07-21T01:12:20;8.68;;;7.97;;
6787;SDS011;3431;47.966;10.268;2022-07-21T01:12:43;8.65;;;7.90;;
6787;SDS011;3431;47.966;10.268;2022-07-21T01:13:05;9.10;;;8.30;;
6787;SDS011;3431;47.966;10.268;2022-07-21T01:13:27;8.73;;;7.95;;
6787;SDS011;3431;47.966;10.268;2022-07-21T01:13:50;8.27;;;7.57;;
6787;SDS011;3431;47.966;10.268;2022-07-21T01:14:12;8.65;;;7.82;;
6787;SDS011;3431;47.966;10.268;2022-07-21T01:14:33;8.95;;;8.15;;
6787;SDS011;3431;47.966;10.268;2022-07-21T01:14:55;8.98;;;8.18;;
6787;SDS011;3431;47.966;10.268;2022-07-21T01:15:19;8.73;;;7.93;;
6787;SDS011;3431;47.966;10.268;2022-07-21T01:15:41;8.85;;;8.05;;
6787;SDS011;3431;47.966;10.268;2022-07-21T01:16:03;9.00;;;8.20;;
6787;SDS011;3431;47.966;10.268;2022-07-21T01:16:26;9.43;;;8.52;;
6787;SDS011;3431;47.966;10.268;2022-07-21T01:16:48;8.75;;;7.95;;
6787;SDS011;3431;47.966;10.268;2022-07-21T01:17:10;9.05;;;8.15;;
6787;SDS011;3431;47.966;10.268;2022-07-21T01:17:32;8.60;;;7.90;;
6787;SDS011;3431;47.966;10.268;2022-07-21T01:17:54;9.20;;;8.35;;
6787;SDS011;3431;47.966;10.268;2022-07-21T01:18:17;9.65;;;8.75;;
6787;SDS011;3431;47.966;10.268;2022-07-21T01:18:39;9.77;;;8.88;;
6787;SDS011;3431;47.966;10.268;2022-07-21T01:19:01;9.37;;;8.47;;
6787;SDS011;3431;47.966;10.268;2022-07-21T01:19:23;9.52;;;8.70;;
6787;SDS011;3431;47.966;10.268;2022-07-21T01:19:45;8.93;;;8.05;;
6787;SDS011;3431;47.966;10.268;2022-07-21T01:20:08;8.80;;;8.00;;
6787;SDS011;3431;47.966;10.268;2022-07-21T01:20:33;9.20;;;8.40;;
6787;SDS011;3431;47.966;10.268;2022-07-21T01:20:56;8.90;;;8.10;;
6787;SDS011;3431;47.966;10.268;2022-07-21T01:21:30;9.18;;;8.27;;
6787;SDS011;3431;47.966;10.268;2022-07-21T01:21:52;9.35;;;8.45;;
6787;SDS011;3431;47.966;10.268;2022-07-21T01:22:14;9.13;;;8.32;;
6787;SDS011;3431;47.966;10.268;2022-07-21T01:22:37;9.53;;;8.63;;
6787;SDS011;3431;47.966;10.268;2022-07-21T01:23:01;9.10;;;8.30;;
6787;SDS011;3431;47.966;10.268;2022-07-21T01:23:23;8.73;;;8.00;;
6787;SDS011;3431;47.966;10.268;2022-07-21T01:23:45;9.55;;;8.65;;
6787;SDS011;3431;47.966;10.268;2022-07-21T01:24:07;9.43;;;8.50;;
6787;SDS011;3431;47.966;10.268;2022-07-21T01:24:31;9.40;;;8.40;;
6787;SDS011;3431;47.966;10.268;2022-07-21T01:24:52;9.20;;;8.38;;
6787;SDS011;3431;47.966;10.268;2022-07-21T01:25:14;8.98;;;8.13;;
6787;SDS011;3431;47.966;10.268;2022-07-21T01:25:37;9.65;;;8.77;;
6787;SDS011;3431;47.966;10.268;2022-07-21T01:25:59;9.48;;;8.63;;
6787;SDS011;3431;47.966;10.268;2022-07-21T01:26:23;9.35;;;8.55;;
6787;SDS011;3431;47.966;10.268;2022-07-21T01:26:46;9.50;;;8.65;;
6787;SDS011;3431;47.966;10.268;2022-07-21T01:27:09;8.48;;;7.78;;
6787;SDS011;3431;47.966;10.268;2022-07-21T01:27:32;8.52;;;7.72;;
6787;SDS011;3431;47.966;10.268;2022-07-21T01:27:54;9.20;;;8.30;;
6787;SDS011;3431;47.966;10.268;2022-07-21T01:28:15;9.27;;;8.48;;
6787;SDS011;3431;47.966;10.268;2022-07-21T01:28:38;9.38;;;8.57;;
6787;SDS011;3431;47.966;10.268;2022-07-21T01:29:00;9.15;;;8.35;;
6787;SDS011;3431;47.966;10.268;2022-07-21T01:29:22;9.10;;;8.30;;
6787;SDS011;3431;47.966;10.268;2022-07-21T01:29:44;9.25;;;8.35;;
6787;SDS011;3431;47.966;10.268;2022-07-21T01:30:06;9.05;;;8.15;;
6787;SDS011;3431;47.966;10.268;2022-07-21T01:30:30;9.30;;;8.40;;
6787;SDS011;3431;47.966;10.268;2022-07-21T01:30:52;9.10;;;8.25;;
6787;SDS011;3431;47.966;10.268;2022-07-21T01:31:13;9.37;;;8.47;;
6787;SDS011;3431;47.966;10.268;2022-07-21T01:31:35;9.05;;;8.25;;
6787;SDS011;3431;47.966;10.268;2022-07-21T01:31:59;8.93;;;8.13;;
6787;SDS011;3431;47.966;10.268;2022-07-21T01:32:20;9.20;;;8.30;;
6787;SDS011;3431;47.966;10.268;2022-07-21T01:32:42;9.23;;;8.32;;
6787;SDS011;3431;47.966;10.268;2022-07-21T01:33:04;9.13;;;8.32;;
6787;SDS011;3431;47.966;10.268;2022-07-21T01:33:27;8.75;;;8.02;;
6787;SDS011;3431;47.966;10.268;2022-07-21T01:33:49;8.75;;;7.95;;
6787;SDS011;3431;47.966;10.268;2022-07-21T01:34:11;8.93;;;8.23;;
6787;SDS011;3431;47.966;10.268;2022-07-21T01:34:33;9.45;;;8.60;;
6787;SDS011;3431;47.966;10.268;2022-07-21T01:34:56;9.63;;;8.68;;
6787;SDS011;3431;47.966;10.268;2022-07-21T01:35:17;9.07;;;8.27;;
6787;SDS011;3431;47.966;10.268;2022-07-21T01:35:39;8.77;;;7.97;;
6787;SDS011;3431;47.966;10.268;2022-07-21T01:36:02;8.43;;;7.65;;
6787;SDS011;3431;47.966;10.268;2022-07-21T01:36:24;8.30;;;7.60;;
6787;SDS011;3431;47.966;10.268;2022-07-21T01:36:47;8.70;;;7.90;;
6787;SDS011;3431;47.966;10.268;2022-07-21T01:37:09;8.52;;;7.72;;
6787;SDS011;3431;47.966;10.268;2022-07-21T01:37:33;8.50;;;7.70;;
6787;SDS011;3431;47.966;10.268;2022-07-21T01:37:59;8.50;;;7.78;;
6787;SDS011;3431;47.966;10.268;2022-07-21T01:38:21;8.43;;;7.72;;
6787;SDS011;3431;47.966;10.268;2022-07-21T01:39:12;9.00;;;8.18;;
6787;SDS011;3431;47.966;10.268;2022-07-21T01:39:53;8.57;;;7.80;;
6787;SDS011;3431;47.966;10.268;2022-07-21T01:40:33;8.40;;;7.70;;
6787;SDS011;3431;47.966;10.268;2022-07-21T01:41:13;8.20;;;7.50;;
6787;SDS011;3431;47.966;10.268;2022-07-21T01:41:51;8.32;;;7.63;;
6787;SDS011;3431;47.966;10.268;2022-07-21T01:42:13;8.23;;;7.53;;
6787;SDS011;3431;47.966;10.268;2022-07-21T01:42:34;8.27;;;7.57;;
6787;SDS011;3431;47.966;10.268;2022-07-21T01:42:56;8.55;;;7.72;;
6787;SDS011;3431;47.966;10.268;2022-07-21T01:43:19;7.93;;;7.32;;
6787;SDS011;3431;47.966;10.268;2022-07-21T01:43:41;8.45;;;7.65;;
6787;SDS011;3431;47.966;10.268;2022-07-21T01:44:03;8.70;;;7.90;;
6787;SDS011;3431;47.966;10.268;2022-07-21T01:44:26;8.45;;;7.68;;
6787;SDS011;3431;47.966;10.268;2022-07-21T01:44:49;7.93;;;7.22;;
6787;SDS011;3431;47.966;10.268;2022-07-21T01:45:11;8.37;;;7.57;;
6787;SDS011;3431;47.966;10.268;2022-07-21T01:45:32;8.50;;;7.70;;
6787;SDS011;3431;47.966;10.268;2022-07-21T01:45:55;7.88;;;7.28;;
6787;SDS011;3431;47.966;10.268;2022-07-21T01:46:17;8.30;;;7.47;;
6787;SDS011;3431;47.966;10.268;2022-07-21T01:46:42;7.87;;;7.17;;
6787;SDS011;3431;47.966;10.268;2022-07-21T01:47:05;8.68;;;7.88;;
6787;SDS011;3431;47.966;10.268;2022-07-21T01:47:28;8.35;;;7.65;;
6787;SDS011;3431;47.966;10.268;2022-07-21T01:47:49;8.55;;;7.75;;
6787;SDS011;3431;47.966;10.268;2022-07-21T01:48:11;8.35;;;7.65;;
6787;SDS011;3431;47.966;10.268;2022-07-21T01:48:33;8.20;;;7.50;;
6787;SDS011;3431;47.966;10.268;2022-07-21T01:48:56;8.70;;;7.90;;
6787;SDS011;3431;47.966;10.268;2022-07-21T01:49:19;8.18;;;7.47;;
6787;SDS011;3431;47.966;10.268;2022-07-21T01:49:41;8.23;;;7.53;;
6787;SDS011;3431;47.966;10.268;2022-07-21T01:50:03;7.85;;;7.25;;
6787;SDS011;3431;47.966;10.268;2022-07-21T01:50:27;8.35;;;7.65;;
6787;SDS011;3431;47.966;10.268;2022-07-21T01:50:48;8.35;;;7.63;;
6787;SDS011;3431;47.966;10.268;2022-07-21T01:51:10;7.82;;;7.13;;
6787;SDS011;3431;47.966;10.268;2022-07-21T01:51:32;8.45;;;7.68;;
6787;SDS011;3431;47.966;10.268;2022-07-21T01:51:57;8.77;;;7.95;;
6787;SDS011;3431;47.966;10.268;2022-07-21T01:52:18;8.85;;;8.05;;
6787;SDS011;3431;47.966;10.268;2022-07-21T01:52:40;8.00;;;7.30;;
6787;SDS011;3431;47.966;10.268;2022-07-21T01:53:01;8.20;;;7.53;;
6787;SDS011;3431;47.966;10.268;2022-07-21T01:53:24;8.77;;;7.97;;
6787;SDS011;3431;47.966;10.268;2022-07-21T01:53:46;8.20;;;7.50;;
6787;SDS011;3431;47.966;10.268;2022-07-21T01:54:07;8.88;;;8.07;;
6787;SDS011;3431;47.966;10.268;2022-07-21T01:54:30;8.93;;;8.18;;
6787;SDS011;3431;47.966;10.268;2022-07-21T01:54:52;8.82;;;8.02;;
6787;SDS011;3431;47.966;10.268;2022-07-21T01:55:14;8.60;;;7.78;;
6787;SDS011;3431;47.966;10.268;2022-07-21T01:55:36;8.85;;;8.15;;
6787;SDS011;3431;47.966;10.268;2022-07-21T01:55:58;8.77;;;7.97;;
6787;SDS011;3431;47.966;10.268;2022-07-21T01:56:19;8.90;;;8.10;;
6787;SDS011;3431;47.966;10.268;2022-07-21T01:56:42;8.82;;;8.02;;
6787;SDS011;3431;47.966;10.268;2022-07-21T01:57:04;8.70;;;8.00;;
6787;SDS011;3431;47.966;10.268;2022-07-21T01:57:26;8.70;;;7.95;;
6787;SDS011;3431;47.966;10.268;2022-07-21T01:57:48;8.20;;;7.50;;
6787;SDS011;3431;47.966;10.268;2022-07-21T01:58:10;8.25;;;7.55;;
6787;SDS011;3431;47.966;10.268;2022-07-21T01:58:32;8.27;;;7.53;;
6787;SDS011;3431;47.966;10.268;2022-07-21T01:58:55;8.82;;;8.00;;
6787;SDS011;3431;47.966;10.268;2022-07-21T01:59:18;8.95;;;8.13;;
6787;SDS011;3431;47.966;10.268;2022-07-21T01:59:41;8.20;;;7.50;;
6787;SDS011;3431;47.966;10.268;2022-07-21T02:00:03;9.32;;;8.52;;
6787;SDS011;3431;47.966;10.268;2022-07-21T02:00:27;8.98;;;8.27;;
6787;SDS011;3431;47.966;10.268;2022-07-21T02:00:49;8.65;;;7.95;;
6787;SDS011;3431;47.966;10.268;2022-07-21T02:01:11;8.75;;;7.95;;
6787;SDS011;3431;47.966;10.268;2022-07-21T02:01:33;8.80;;;7.90;;
6787;SDS011;3431;47.966;10.268;2022-07-21T02:01:55;8.63;;;7.88;;
6787;SDS011;3431;47.966;10.268;2022-07-21T02:02:17;8.68;;;7.97;;
6787;SDS011;3431;47.966;10.268;2022-07-21T02:02:41;8.93;;;8.13;;
6787;SDS011;3431;47.966;10.268;2022-07-21T02:03:03;8.75;;;8.05;;
6787;SDS011;3431;47.966;10.268;2022-07-21T02:03:25;8.90;;;8.07;;
6787;SDS011;3431;47.966;10.268;2022-07-21T02:03:47;8.93;;;8.13;;
6787;SDS011;3431;47.966;10.268;2022-07-21T02:04:09;8.52;;;7.82;;
6787;SDS011;3431;47.966;10.268;2022-07-21T02:04:32;8.90;;;8.20;;
6787;SDS011;3431;47.966;10.268;2022-07-21T02:04:55;8.13;;;7.43;;
6787;SDS011;3431;47.966;10.268;2022-07-21T02:05:16;8.02;;;7.32;;
6787;SDS011;3431;47.966;10.268;2022-07-21T02:05:38;8.77;;;8.05;;
6787;SDS011;3431;47.966;10.268;2022-07-21T02:06:02;8.90;;;8.05;;
6787;SDS011;3431;47.966;10.268;2022-07-21T02:06:23;8.90;;;8.00;;
6787;SDS011;3431;47.966;10.268;2022-07-21T02:06:45;8.68;;;7.88;;
6787;SDS011;3431;47.966;10.268;2022-07-21T02:07:08;8.23;;;7.43;;
6787;SDS011;3431;47.966;10.268;2022-07-21T02:07:31;8.80;;;8.00;;
6787;SDS011;3431;47.966;10.268;2022-07-21T02:07:53;9.15;;;8.35;;
6787;SDS011;3431;47.966;10.268;2022-07-21T02:08:14;9.25;;;8.45;;
6787;SDS011;3431;47.966;10.268;2022-07-21T02:08:36;8.55;;;7.75;;
6787;SDS011;3431;47.966;10.268;2022-07-21T02:08:59;8.57;;;7.88;;
6787;SDS011;3431;47.966;10.268;2022-07-21T02:09:21;8.18;;;7.47;;
6787;SDS011;3431;47.966;10.268;2022-07-21T02:09:43;8.38;;;7.68;;
6787;SDS011;3431;47.966;10.268;2022-07-21T02:10:05;8.95;;;8.15;;
6787;SDS011;3431;47.966;10.268;2022-07-21T02:10:27;8.60;;;7.80;;
6787;SDS011;3431;47.966;10.268;2022-07-21T02:10:50;8.35;;;7.65;;
6787;SDS011;3431;47.966;10.268;2022-07-21T02:11:12;8.25;;;7.55;;
6787;SDS011;3431;47.966;10.268;2022-07-21T02:11:34;9.10;;;8.30;;
6787;SDS011;3431;47.966;10.268;2022-07-21T02:11:56;8.50;;;7.72;;
6787;SDS011;3431;47.966;10.268;2022-07-21T02:12:18;8.50;;;7.72;;
6787;SDS011;3431;47.966;10.268;2022-07-21T02:12:41;8.35;;;7.65;;
6787;SDS011;3431;47.966;10.268;2022-07-21T02:13:02;8.70;;;7.93;;
6787;SDS011;3431;47.966;10.268;2022-07-21T02:13:24;9.60;;;8.80;;
6787;SDS011;3431;47.966;10.268;2022-07-21T02:13:46;9.02;;;8.23;;
6787;SDS011;3431;47.966;10.268;2022-07-21T02:14:08;8.32;;;7.60;;
6787;SDS011;3431;47.966;10.268;2022-07-21T02:14:31;9.00;;;8.20;;
6787;SDS011;3431;47.966;10.268;2022-07-21T02:14:53;8.85;;;8.05;;
6787;SDS011;3431;47.966;10.268;2022-07-21T02:15:14;8.48;;;7.72;;
6787;SDS011;3431;47.966;10.268;2022-07-21T02:15:36;8.98;;;8.27;;
6787;SDS011;3431;47.966;10.268;2022-07-21T02:15:57;8.27;;;7.57;;
6787;SDS011;3431;47.966;10.268;2022-07-21T02:16:20;8.45;;;7.65;;
6787;SDS011;3431;47.966;10.268;2022-07-21T02:16:42;8.55;;;7.85;;
6787;SDS011;3431;47.966;10.268;2022-07-21T02:17:04;8.55;;;7.85;;
6787;SDS011;3431;47.966;10.268;2022-07-21T02:17:26;8.00;;;7.30;;
6787;SDS011;3431;47.966;10.268;2022-07-21T02:17:48;8.77;;;7.97;;
6787;SDS011;3431;47.966;10.268;2022-07-21T02:18:10;8.65;;;7.95;;